createdAt,value
2018-12-29T00:37:06.827Z,80.67
2018-12-29T00:39:45.292Z,87.03
2018-12-29T00:54:22.734Z,78.27
2018-12-29T00:57:03.650Z,84.23
2018-12-29T00:59:45.097Z,97.00
2018-12-29T01:02:26.339Z,91.80
2018-12-29T01:05:07.314Z,100.03
2018-12-29T01:07:48.946Z,92.53
2018-12-29T01:10:29.556Z,104.43
2018-12-29T01:13:11.016Z,81.43
2018-12-29T02:00:32.759Z,66.67
2018-12-29T02:03:14.274Z,88.50
2018-12-29T02:05:55.364Z,74.67
2018-12-29T02:08:36.047Z,66.93
2018-12-29T02:11:17.215Z,72.43
2018-12-29T02:13:58.344Z,74.27
2018-12-29T02:16:38.932Z,94.17
2018-12-29T02:19:19.430Z,73.70
2018-12-29T02:22:00.131Z,75.97
2018-12-29T02:24:41.573Z,68.43
2018-12-29T02:27:22.447Z,67.00
2018-12-29T02:30:02.248Z,70.77
2018-12-29T02:32:43.755Z,70.73
2018-12-29T02:35:25.524Z,69.17
2018-12-29T02:38:06.640Z,73.10
2018-12-29T02:40:48.096Z,90.20
2018-12-29T02:43:29.519Z,79.30
2018-12-29T02:46:10.196Z,89.07
2018-12-29T02:48:51.634Z,85.30
2018-12-29T02:51:20.986Z,78.43
2018-12-29T02:54:09.408Z,76.77
2018-12-29T02:56:50.193Z,76.40
2018-12-29T02:59:30.865Z,80.47
2018-12-29T03:02:12.101Z,90.20
2018-12-29T03:04:52.928Z,72.57
2018-12-29T03:07:33.892Z,99.20
2018-12-29T03:10:14.505Z,83.97
2018-12-29T03:12:56.161Z,79.27
2018-12-29T03:15:25.604Z,80.50
2018-12-29T03:18:14.197Z,99.97
2018-12-29T03:20:55.055Z,70.40
2018-12-29T03:23:36.193Z,78.20
2018-12-29T03:26:17.513Z,73.93
2018-12-29T03:28:58.547Z,70.10
2018-12-29T03:31:39.499Z,79.63
2018-12-29T03:34:17.884Z,72.43
2018-12-29T06:14:39.544Z,72.63
2018-12-29T06:17:19.401Z,75.53
2018-12-29T06:20:00.423Z,90.70
2018-12-29T06:22:41.484Z,75.30
2018-12-29T06:25:22.110Z,98.93
2018-12-29T06:28:02.808Z,89.93
2018-12-29T06:30:44.144Z,101.43
2018-12-29T06:33:25.453Z,98.53
2018-12-29T06:36:06.689Z,91.60
2018-12-29T06:38:47.703Z,96.17
2018-12-29T06:41:28.961Z,115.10
2018-12-29T06:44:10.325Z,126.27
2018-12-29T06:46:50.951Z,105.83
2018-12-29T06:49:32.452Z,116.70
2018-12-29T06:52:13.723Z,111.90
2018-12-29T06:54:55.127Z,89.00
2018-12-29T06:57:36.009Z,85.23
2018-12-29T07:00:16.695Z,82.27
2018-12-29T07:02:57.354Z,115.70
2018-12-29T07:05:38.502Z,72.27
2018-12-29T07:08:19.197Z,105.60
2018-12-29T07:10:59.878Z,104.10
2018-12-29T07:13:41.441Z,98.13
2018-12-29T07:16:22.912Z,90.30
2018-12-29T07:19:04.164Z,93.33
2018-12-29T07:21:44.149Z,102.60
2018-12-29T07:54:09.344Z,105.90
2018-12-29T07:56:49.272Z,77.90
2018-12-29T07:59:27.877Z,96.27
2018-12-29T08:02:06.665Z,99.63
2018-12-29T08:46:24.904Z,181.87
2018-12-29T08:49:05.977Z,147.03
2018-12-29T08:51:46.010Z,158.47
2018-12-29T08:54:34.426Z,176.70
2018-12-29T08:57:15.916Z,130.90
2018-12-29T08:59:56.769Z,93.43
2018-12-29T09:02:26.173Z,108.17
2018-12-29T09:05:14.632Z,99.87
2018-12-29T09:07:56.241Z,123.33
2018-12-29T09:10:37.132Z,124.07
2018-12-29T09:16:00.075Z,95.40
2018-12-29T09:18:49.840Z,104.33
2018-12-29T09:21:31.532Z,112.53
2018-12-29T09:24:12.623Z,109.53
2018-12-29T09:26:52.079Z,105.27
2018-12-29T09:29:33.093Z,134.83
2018-12-29T09:32:14.273Z,103.97
2018-12-29T09:34:55.305Z,135.93
2018-12-29T09:37:36.811Z,113.87
2018-12-29T09:40:17.992Z,108.57
2018-12-29T09:42:57.559Z,124.60
2018-12-29T09:45:38.100Z,115.13
2018-12-29T09:48:18.924Z,126.40
2018-12-29T09:50:59.911Z,119.60
2018-12-29T09:53:40.749Z,128.60
2018-12-29T09:56:21.872Z,118.80
2018-12-29T09:59:01.625Z,108.93
2018-12-29T10:07:39.690Z,135.53
2018-12-29T10:10:20.549Z,128.33
2018-12-29T10:13:01.693Z,112.13
2018-12-29T10:15:42.534Z,129.47
2018-12-29T10:18:23.968Z,114.47
2018-12-29T10:21:05.469Z,119.87
2018-12-29T10:23:46.638Z,131.13
2018-12-29T10:26:27.216Z,112.20
2018-12-29T10:29:07.780Z,134.60
2018-12-29T10:31:49.185Z,125.67
2018-12-29T10:34:30.569Z,130.43
2018-12-29T10:37:11.787Z,131.50
2018-12-29T10:39:52.523Z,141.73
2018-12-29T10:42:33.970Z,138.93
2018-12-29T10:45:15.427Z,168.90
2018-12-29T10:47:44.876Z,150.60
2018-12-29T10:50:33.289Z,132.90
2018-12-29T10:53:14.226Z,153.73
2018-12-29T10:55:55.640Z,129.60
2018-12-29T10:58:37.161Z,135.17
2018-12-29T11:01:17.739Z,136.20
2018-12-29T11:03:58.402Z,138.47
2018-12-29T11:06:39.408Z,129.57
2018-12-29T11:09:20.097Z,149.67
2018-12-29T11:12:00.647Z,148.80
2018-12-29T11:14:41.697Z,151.90
2018-12-29T11:17:22.963Z,157.07
2018-12-29T11:20:03.539Z,160.17
2018-12-29T11:22:44.973Z,150.43
2018-12-29T11:25:26.468Z,142.77
2018-12-29T11:28:07.912Z,147.33
2018-12-29T11:30:49.422Z,165.10
2018-12-29T11:33:30.031Z,161.83
2018-12-29T11:36:10.648Z,155.73
2018-12-29T11:38:51.404Z,162.40
2018-12-29T11:41:32.897Z,189.23
2018-12-29T11:44:13.468Z,170.43
2018-12-29T11:46:54.297Z,175.67
2018-12-29T11:49:35.776Z,173.87
2018-12-29T11:52:16.450Z,166.53
2018-12-29T11:54:57.172Z,174.10
2018-12-29T11:57:38.600Z,177.97
2018-12-29T12:00:20.047Z,164.67
2018-12-29T12:03:01.538Z,155.47
2018-12-29T12:05:43.036Z,149.67
2018-12-29T12:08:24.624Z,156.57
2018-12-29T12:11:05.648Z,197.10
2018-12-29T12:13:46.342Z,186.67
2018-12-29T12:16:27.978Z,188.63
2018-12-29T12:19:09.213Z,189.00
2018-12-29T12:21:50.629Z,197.00
2018-12-29T12:24:31.370Z,190.60
2018-12-29T12:27:12.909Z,192.03
2018-12-29T13:11:46.153Z,166.10
2018-12-29T14:11:08.356Z,178.90
2018-12-29T14:13:49.812Z,153.87
2018-12-29T14:16:31.346Z,176.80
2018-12-29T14:19:12.313Z,123.97
2018-12-29T14:21:53.604Z,155.30
2018-12-29T14:24:35.172Z,151.93
2018-12-29T14:27:15.797Z,140.53
2018-12-29T14:29:55.698Z,196.60
2018-12-29T14:32:35.448Z,135.67
2018-12-29T14:35:23.970Z,145.07
2018-12-29T14:38:04.488Z,126.60
2018-12-29T14:40:43.933Z,135.07
2018-12-29T14:43:25.003Z,150.93
2018-12-29T14:46:06.733Z,149.33
2018-12-29T14:48:47.449Z,161.10
2018-12-29T14:51:26.912Z,140.27
2018-12-29T14:54:07.825Z,208.70
2018-12-29T14:56:49.395Z,166.10
2018-12-29T14:59:30.749Z,146.37
2018-12-29T15:02:00.168Z,155.10
2018-12-29T15:04:48.667Z,98.43
2018-12-29T15:07:31.588Z,164.63
2018-12-29T15:10:01.072Z,120.63
2018-12-29T15:12:49.531Z,145.30
2018-12-29T15:15:30.285Z,158.27
2018-12-29T15:18:11.684Z,129.77
2018-12-29T15:20:53.142Z,175.73
2018-12-29T15:23:34.344Z,162.37
2018-12-29T15:26:15.807Z,211.70
2018-12-29T15:28:45.357Z,203.63
2018-12-29T15:31:26.043Z,174.63
2018-12-29T15:34:07.323Z,145.87
2018-12-29T15:36:49.054Z,187.13
2018-12-29T15:39:30.451Z,175.80
2018-12-29T15:42:11.799Z,193.10
2018-12-29T15:44:53.191Z,138.03
2018-12-29T15:47:34.691Z,150.63
2018-12-29T15:50:15.794Z,158.17
2018-12-29T15:52:57.228Z,191.83
2018-12-29T15:55:38.162Z,167.07
2018-12-29T15:58:19.715Z,146.07
2018-12-29T16:01:01.802Z,200.57
2018-12-29T16:03:42.911Z,200.07
2018-12-29T16:06:24.080Z,131.03
2018-12-29T16:09:04.985Z,192.17
2018-12-29T16:11:46.812Z,219.30
2018-12-29T16:14:35.256Z,140.70
2018-12-29T16:17:11.259Z,177.83
2018-12-29T16:19:52.469Z,137.13
2018-12-29T16:22:34.043Z,147.07
2018-12-29T16:25:14.902Z,142.90
2018-12-29T16:27:55.694Z,122.97
2018-12-29T16:30:36.627Z,148.80
2018-12-29T16:33:18.059Z,153.37
2018-12-29T16:35:59.495Z,157.67
2018-12-29T16:38:40.896Z,131.83
2018-12-29T16:41:21.662Z,144.67
2018-12-29T16:44:02.842Z,136.13
2018-12-29T16:46:43.650Z,137.63
2018-12-29T16:49:24.684Z,131.10
2018-12-29T16:52:05.960Z,156.57
2018-12-29T16:54:46.683Z,118.37
2018-12-29T16:57:27.775Z,121.73
2018-12-29T17:00:08.449Z,121.93
2018-12-29T17:02:49.842Z,122.43
2018-12-29T17:05:31.362Z,115.27
2018-12-29T17:08:12.980Z,128.77
2018-12-29T17:10:54.555Z,103.90
2018-12-29T17:13:36.038Z,143.47
2018-12-29T17:16:17.489Z,125.57
2018-12-29T17:18:58.492Z,139.60
2018-12-29T17:21:39.935Z,120.70
2018-12-29T17:24:21.362Z,105.93
2018-12-29T17:27:02.897Z,123.63
2018-12-29T17:29:42.404Z,131.20
2018-12-29T17:32:30.888Z,97.43
2018-12-29T17:35:12.154Z,106.73
2018-12-29T17:37:53.551Z,140.20
2018-12-29T17:40:34.262Z,108.27
2018-12-29T17:43:14.906Z,107.73
2018-12-29T17:45:56.337Z,94.70
2018-12-29T17:48:37.125Z,95.57
2018-12-29T17:51:18.558Z,94.93
2018-12-29T17:54:00.023Z,111.73
2018-12-29T17:56:41.654Z,223.57
2018-12-29T17:59:23.401Z,124.03
2018-12-29T18:02:04.442Z,176.83
2018-12-29T18:04:45.790Z,168.80
2018-12-29T18:07:27.263Z,215.27
2018-12-29T18:10:08.641Z,157.73
2018-12-29T18:12:49.881Z,162.00
2018-12-29T18:15:29.917Z,175.50
2018-12-29T18:18:10.694Z,166.33
2018-12-29T18:20:52.481Z,181.47
2018-12-29T18:23:32.006Z,159.33
2018-12-29T18:26:20.488Z,135.47
2018-12-29T18:29:01.447Z,155.30
2018-12-29T18:31:42.201Z,111.13
2018-12-29T18:34:23.308Z,111.77
2018-12-29T18:37:03.991Z,132.03
2018-12-29T18:39:45.602Z,126.23
2018-12-29T18:42:27.102Z,121.47
2018-12-29T18:45:08.121Z,130.93
2018-12-29T18:47:47.629Z,104.53
2018-12-29T18:50:29.001Z,143.03
2018-12-29T18:53:09.718Z,112.50
2018-12-29T18:55:51.281Z,98.00
2018-12-29T18:58:32.489Z,96.60
2018-12-29T19:01:14.326Z,94.13
2018-12-29T19:03:55.470Z,101.87
2018-12-29T19:06:36.735Z,90.00
2018-12-29T19:09:18.125Z,86.90
2018-12-29T19:11:59.157Z,112.53
2018-12-29T19:14:40.875Z,85.33
2018-12-29T19:17:20.629Z,85.73
2018-12-29T19:23:09.581Z,90.87
2018-12-29T19:25:51.036Z,81.87
2018-12-29T19:28:32.049Z,74.90
2018-12-29T19:31:12.993Z,68.53
2018-12-29T19:33:54.310Z,65.80
2018-12-29T19:36:33.895Z,65.10
2018-12-29T19:39:15.522Z,62.77
2018-12-29T19:41:56.578Z,61.80
2018-12-29T19:44:37.886Z,64.97
2018-12-29T19:47:19.501Z,65.77
2018-12-29T19:50:00.954Z,60.90
2018-12-29T19:52:30.419Z,57.13
2018-12-29T19:55:18.943Z,61.60
2018-12-29T19:57:59.656Z,42.87
2018-12-29T20:00:41.065Z,53.07
2018-12-29T20:03:22.409Z,67.83
2018-12-29T20:06:10.978Z,69.83
2018-12-29T20:08:46.470Z,76.47
2018-12-29T20:11:28.213Z,83.67
2018-12-29T20:14:09.517Z,82.73
2018-12-29T20:16:50.970Z,84.83
2018-12-29T20:19:31.877Z,86.97
2018-12-29T20:22:13.204Z,95.10
2018-12-29T20:24:54.626Z,99.60
2018-12-29T20:27:36.170Z,93.47
2018-12-29T20:30:17.700Z,89.27
2018-12-29T20:32:59.287Z,90.67
2018-12-29T20:35:38.134Z,98.97
2018-12-29T20:41:06.001Z,95.53
2018-12-29T20:43:56.222Z,97.50
2018-12-29T20:46:44.691Z,88.37
2018-12-29T20:49:26.075Z,91.17
2018-12-29T20:52:07.047Z,91.27
2018-12-29T20:54:47.801Z,96.27
2018-12-29T20:57:30.866Z,95.33
2018-12-29T21:00:11.582Z,93.97
2018-12-29T21:02:51.145Z,101.57
2018-12-29T21:05:39.762Z,100.53
2018-12-29T21:08:20.560Z,95.73
2018-12-29T21:11:02.335Z,97.17
2018-12-29T21:13:43.710Z,93.37
2018-12-29T21:16:23.303Z,94.03
2018-12-29T21:19:04.540Z,86.47
2018-12-29T21:21:45.961Z,92.00
2018-12-29T21:24:27.306Z,93.97
2018-12-29T21:27:08.807Z,93.90
2018-12-29T21:29:49.951Z,97.13
2018-12-29T21:32:31.491Z,100.73
2018-12-29T21:35:12.422Z,99.20
2018-12-29T21:37:53.224Z,100.70
2018-12-29T21:40:34.441Z,96.10
2018-12-29T21:43:15.736Z,97.77
2018-12-29T21:45:57.404Z,102.20
2018-12-29T21:48:37.549Z,104.00
2018-12-29T21:51:18.334Z,94.53
2018-12-29T21:53:59.279Z,97.23
2018-12-29T21:56:40.286Z,100.83
2018-12-29T21:59:21.627Z,104.30
2018-12-29T22:02:02.440Z,95.50
2018-12-29T22:04:31.884Z,117.07
2018-12-29T22:07:20.399Z,119.53
2018-12-29T22:10:01.555Z,116.13
2018-12-29T22:12:43.002Z,121.90
2018-12-29T22:15:23.830Z,123.60
2018-12-29T22:18:05.170Z,131.17
2018-12-29T22:20:46.587Z,137.67
2018-12-29T22:23:27.945Z,137.57
2018-12-29T22:26:09.317Z,145.80
2018-12-29T22:28:50.376Z,131.33
2018-12-29T22:31:31.054Z,146.20
2018-12-29T22:34:12.575Z,146.47
2018-12-29T22:36:52.049Z,140.23
2018-12-29T22:39:33.545Z,147.67
2018-12-29T22:42:15.013Z,154.83
2018-12-29T22:44:56.217Z,155.80
2018-12-29T22:47:37.512Z,149.17
2018-12-29T22:50:18.991Z,152.73
2018-12-29T22:53:00.520Z,143.93
2018-12-29T22:55:41.547Z,143.93
2018-12-29T22:58:22.298Z,150.03
2018-12-29T23:01:03.517Z,139.60
2018-12-29T23:03:44.837Z,142.33
2018-12-29T23:06:26.325Z,135.17
2018-12-29T23:09:07.024Z,129.00
2018-12-29T23:11:48.360Z,127.40
2018-12-29T23:14:29.986Z,122.43
2018-12-29T23:17:11.872Z,114.87
2018-12-29T23:19:52.761Z,108.10
2018-12-29T23:22:34.295Z,111.73
2018-12-29T23:25:15.648Z,110.00
2018-12-29T23:27:56.867Z,111.13
2018-12-29T23:30:38.199Z,113.67
2018-12-29T23:33:19.467Z,120.17
2018-12-29T23:36:00.291Z,122.97
2018-12-29T23:38:41.760Z,118.53
2018-12-29T23:41:22.974Z,123.00
2018-12-29T23:44:02.753Z,128.57
2018-12-29T23:46:51.320Z,130.90
2018-12-29T23:49:34.262Z,149.47
2018-12-29T23:52:15.436Z,164.37
2018-12-29T23:54:56.545Z,166.53
2018-12-29T23:57:38.177Z,175.83
